Time;durP1;ratioP1;P1;durP2;ratioP2;P2;SDS_P1;SDS_P2;PMS_P1;PMS_P2;Temp;Humidity;BMP_temperature;BMP_pressure;BME280_temperature;BME280_humidity;BME280_pressure;Samples;Min_cycle;Max_cycle;Signal;HPM_P1;HPM_P2
2022/11/24 00:01:18;;;;;;;;;8.33;7.33;;;;;-149.00;100.00;66333.84;5080714;28;45404;-76
2022/11/24 00:03:46;;;;;;;;;9.00;7.33;;;;;-149.00;100.00;66333.84;5061985;28;47064;-77
2022/11/24 00:06:14;;;;;;;;;7.33;6.33;;;;;-149.00;100.00;66333.84;5080068;28;45362;-77
2022/11/24 00:08:41;;;;;;;;;7.33;5.67;;;;;-149.00;100.00;66333.84;5080226;28;45217;-77
2022/11/24 00:11:10;;;;;;;;;7.67;7.33;;;;;-149.00;100.00;66333.84;5080405;28;45716;-77
2022/11/24 00:13:37;;;;;;;;;7.00;4.67;;;;;-149.00;100.00;66333.84;5080209;28;46580;-77
2022/11/24 00:16:16;;;;;;;;;5.00;4.00;;;;;-149.00;100.00;66333.84;5080489;28;45279;-76
2022/11/24 00:18:43;;;;;;;;;8.67;6.00;;;;;-149.00;100.00;66333.84;5080353;28;45447;-77
2022/11/24 00:21:09;;;;;;;;;5.67;4.00;;;;;-149.00;100.00;66333.84;5061893;28;46227;-76
2022/11/24 00:23:36;;;;;;;;;6.33;5.00;;;;;-149.00;100.00;66333.84;5079991;28;46062;-76
2022/11/24 00:26:10;;;;;;;;;5.00;5.00;;;;;-149.00;100.00;66333.84;5047831;28;45786;-76
2022/11/24 00:28:36;;;;;;;;;8.33;5.33;;;;;-149.00;100.00;66333.84;5062132;28;45339;-76
2022/11/24 00:31:04;;;;;;;;;4.00;3.67;;;;;-149.00;100.00;66333.84;5079575;28;45236;-76
2022/11/24 00:33:29;;;;;;;;;8.67;7.00;;;;;-149.00;100.00;66333.84;5080191;28;46668;-76
2022/11/24 00:35:59;;;;;;;;;8.00;6.00;;;;;-149.00;100.00;66333.84;5079627;28;45228;-77
2022/11/24 00:38:25;;;;;;;;;6.00;6.00;;;;;-149.00;100.00;66333.84;5064498;28;45416;-77
2022/11/24 00:40:51;;;;;;;;;7.00;5.00;;;;;-149.00;100.00;66333.84;5061664;28;47196;-77
2022/11/24 00:43:17;;;;;;;;;4.67;4.00;;;;;-149.00;100.00;66333.84;5079310;28;45281;-76
2022/11/24 00:45:42;;;;;;;;;7.33;6.00;;;;;-149.00;100.00;66333.84;5079816;28;45406;-76
2022/11/24 00:48:08;;;;;;;;;4.33;4.33;;;;;-149.00;100.00;66333.84;5079966;28;45661;-76
2022/11/24 00:50:34;;;;;;;;;8.00;4.67;;;;;-149.00;100.00;66333.84;5079825;28;45491;-76
2022/11/24 00:52:59;;;;;;;;;5.00;4.00;;;;;-149.00;100.00;66333.84;5061362;28;47467;-76
2022/11/24 00:55:25;;;;;;;;;5.00;5.00;;;;;-149.00;100.00;66333.84;5061496;28;45718;-76
2022/11/24 00:57:50;;;;;;;;;4.67;3.67;;;;;-149.00;100.00;66333.84;5080128;28;45264;-76
2022/11/24 01:00:16;;;;;;;;;6.33;5.33;;;;;-149.00;100.00;66333.84;5078162;28;47308;-76
2022/11/24 01:02:42;;;;;;;;;7.00;6.00;;;;;-149.00;100.00;66333.84;5079667;28;46203;-76
2022/11/24 01:05:07;;;;;;;;;4.67;4.00;;;;;-149.00;100.00;66333.84;5060940;28;45426;-77
2022/11/24 01:07:33;;;;;;;;;4.67;4.00;;;;;-149.00;100.00;66333.84;5079810;28;45350;-76
2022/11/24 01:09:58;;;;;;;;;5.00;2.00;;;;;-149.00;100.00;66333.84;5079358;28;48311;-76
2022/11/24 01:12:23;;;;;;;;;3.33;3.00;;;;;-149.00;100.00;66333.84;5079426;28;45369;-76
2022/11/24 01:14:48;;;;;;;;;3.00;3.00;;;;;-149.00;100.00;66333.84;5079399;28;45389;-76
2022/11/24 01:17:14;;;;;;;;;7.00;5.00;;;;;-149.00;100.00;66333.84;5079677;28;45371;-76
2022/11/24 01:19:39;;;;;;;;;3.67;3.00;;;;;-149.00;100.00;66333.84;5060920;28;50287;-76
2022/11/24 01:22:04;;;;;;;;;3.67;2.33;;;;;-149.00;100.00;66333.84;5079196;28;45360;-76
2022/11/24 01:24:30;;;;;;;;;4.00;3.00;;;;;-149.00;100.00;66333.84;5079431;28;45487;-76
2022/11/24 01:26:55;;;;;;;;;4.67;3.67;;;;;-149.00;100.00;66333.84;5061153;28;45376;-76
2022/11/24 01:29:21;;;;;;;;;2.00;2.00;;;;;-149.00;100.00;66333.84;5061107;28;45907;-76
2022/11/24 01:31:46;;;;;;;;;4.67;2.67;;;;;-149.00;100.00;66333.84;5079403;28;45205;-76
2022/11/24 01:34:12;;;;;;;;;6.33;3.67;;;;;-149.00;100.00;66333.84;5078922;28;45239;-77
2022/11/24 01:36:38;;;;;;;;;4.00;2.00;;;;;-149.00;100.00;66333.84;5061064;28;45293;-76
2022/11/24 01:39:03;;;;;;;;;2.00;1.33;;;;;-149.00;100.00;66333.84;5079372;28;45263;-76
2022/11/24 01:41:29;;;;;;;;;1.67;1.67;;;;;-149.00;100.00;66333.84;5079104;28;45224;-77
2022/11/24 01:43:55;;;;;;;;;4.33;2.00;;;;;-149.00;100.00;66333.84;5079411;28;45136;-76
2022/11/24 01:46:33;;;;;;;;;1.00;1.00;;;;;-149.00;100.00;66333.84;5060994;28;45273;-76
2022/11/24 01:49:04;;;;;;;;;4.00;3.00;;;;;-149.00;100.00;66333.84;5078945;28;45324;-76
2022/11/24 01:51:33;;;;;;;;;1.00;1.00;;;;;-149.00;100.00;66333.84;5078771;28;46215;-76
2022/11/24 01:54:12;;;;;;;;;2.00;2.00;;;;;-149.00;100.00;66333.84;5078902;28;45347;-76
2022/11/24 01:56:41;;;;;;;;;1.33;1.33;;;;;-149.00;100.00;66333.84;5082698;28;45165;-77
2022/11/24 01:59:10;;;;;;;;;6.00;3.33;;;;;-149.00;100.00;66333.84;5082562;28;45472;-76
2022/11/24 02:01:36;;;;;;;;;2.00;2.00;;;;;-149.00;100.00;66333.84;5082346;28;46228;-76
2022/11/24 02:04:04;;;;;;;;;3.00;1.00;;;;;-149.00;100.00;66333.84;5082597;28;45216;-77
2022/11/24 02:06:34;;;;;;;;;2.33;1.00;;;;;-149.00;100.00;66333.84;5082445;28;45333;-76
2022/11/24 02:09:06;;;;;;;;;2.00;2.00;;;;;-149.00;100.00;66333.84;5082043;28;45323;-76
2022/11/24 02:11:35;;;;;;;;;2.00;1.00;;;;;-149.00;100.00;66333.84;5064052;28;47762;-76
2022/11/24 02:14:04;;;;;;;;;3.00;2.67;;;;;-149.00;100.00;66333.84;5081962;28;45194;-76
2022/11/24 02:16:31;;;;;;;;;1.33;1.33;;;;;-149.00;100.00;66333.84;5082290;28;45468;-77
2022/11/24 02:18:56;;;;;;;;;3.00;3.00;;;;;-149.00;100.00;66333.84;5081994;28;45411;-76
2022/11/24 02:21:22;;;;;;;;;4.00;3.67;;;;;-149.00;100.00;66333.84;5081931;28;46235;-76
2022/11/24 02:24:06;;;;;;;;;1.33;1.00;;;;;-149.00;100.00;66333.84;5081875;28;45495;-77
2022/11/24 02:26:42;;;;;;;;;3.67;2.00;;;;;-149.00;100.00;66333.84;5082206;28;45320;-77
2022/11/24 02:29:10;;;;;;;;;2.67;2.67;;;;;-149.00;100.00;66333.84;5063528;28;47042;-76
2022/11/24 02:31:35;;;;;;;;;1.00;1.00;;;;;-149.00;100.00;66333.84;5081934;28;45366;-76
2022/11/24 02:34:00;;;;;;;;;4.33;3.00;;;;;-149.00;100.00;66333.84;5063780;28;45492;-77
2022/11/24 02:36:26;;;;;;;;;1.00;1.00;;;;;-149.00;100.00;66333.84;5081782;28;45402;-77
2022/11/24 02:38:51;;;;;;;;;3.00;2.00;;;;;-149.00;100.00;66333.84;5063428;28;46215;-76
2022/11/24 02:41:20;;;;;;;;;1.00;1.00;;;;;-149.00;100.00;66333.84;5081772;28;45275;-76
2022/11/24 02:43:53;;;;;;;;;2.00;2.00;;;;;-149.00;100.00;66333.84;5082008;28;45365;-77
2022/11/24 02:46:19;;;;;;;;;2.00;2.00;;;;;-149.00;100.00;66333.84;5081786;28;45224;-76
2022/11/24 02:48:44;;;;;;;;;2.00;2.00;;;;;-149.00;100.00;66333.84;5081592;28;45710;-77
2022/11/24 02:51:09;;;;;;;;;1.33;1.33;;;;;-149.00;100.00;66333.84;5081514;28;45852;-77
2022/11/24 02:53:35;;;;;;;;;2.33;2.33;;;;;-149.00;100.00;66333.84;5081495;28;45234;-76
2022/11/24 02:56:00;;;;;;;;;4.67;4.67;;;;;-149.00;100.00;66333.84;5063747;28;45615;-77
2022/11/24 02:58:25;;;;;;;;;1.33;1.33;;;;;-149.00;100.00;66333.84;5081725;28;45421;-77
2022/11/24 03:00:53;;;;;;;;;1.67;1.33;;;;;-149.00;100.00;66333.84;5063136;28;48106;-76
2022/11/24 03:03:20;;;;;;;;;6.00;2.33;;;;;-149.00;100.00;66333.84;5063185;28;45922;-77
2022/11/24 03:05:45;;;;;;;;;6.00;4.00;;;;;-149.00;100.00;66333.84;5062756;28;45485;-76
2022/11/24 03:08:11;;;;;;;;;6.00;3.00;;;;;-149.00;100.00;66333.84;5081324;28;45658;-77
2022/11/24 03:10:37;;;;;;;;;3.00;2.00;;;;;-149.00;100.00;66333.84;5062918;28;46115;-77
2022/11/24 03:13:02;;;;;;;;;3.33;1.67;;;;;-149.00;100.00;66333.84;5081361;28;45231;-76
2022/11/24 03:15:28;;;;;;;;;3.33;3.33;;;;;-149.00;100.00;66333.84;5063113;28;45457;-76
2022/11/24 03:17:55;;;;;;;;;3.67;2.33;;;;;-149.00;100.00;66333.84;5081313;28;45465;-77
2022/11/24 03:20:20;;;;;;;;;4.00;2.67;;;;;-149.00;100.00;66333.84;5080891;28;45252;-76
2022/11/24 03:22:45;;;;;;;;;1.00;1.00;;;;;-149.00;100.00;66333.84;5081290;28;45361;-77
2022/11/24 03:25:11;;;;;;;;;4.00;3.00;;;;;-149.00;100.00;66333.84;5081264;28;45390;-76
2022/11/24 03:27:36;;;;;;;;;4.00;4.00;;;;;-149.00;100.00;66333.84;5062776;28;47207;-77
2022/11/24 03:30:02;;;;;;;;;4.00;1.00;;;;;-149.00;100.00;66333.84;5081008;28;46310;-76
2022/11/24 03:32:27;;;;;;;;;2.67;2.00;;;;;-149.00;100.00;66333.84;5080888;28;45391;-77
2022/11/24 03:34:53;;;;;;;;;4.33;3.00;;;;;-149.00;100.00;66333.84;5081122;28;45543;-76
2022/11/24 03:37:18;;;;;;;;;2.00;2.00;;;;;-149.00;100.00;66333.84;5080694;28;45446;-76
2022/11/24 03:39:43;;;;;;;;;2.33;1.00;;;;;-149.00;100.00;66333.84;5080709;28;53269;-76
2022/11/24 03:42:09;;;;;;;;;3.67;2.00;;;;;-149.00;100.00;66333.84;5081035;28;45297;-76
2022/11/24 03:44:34;;;;;;;;;3.00;2.00;;;;;-149.00;100.00;66333.84;5062620;28;45335;-76
2022/11/24 03:46:59;;;;;;;;;6.33;3.00;;;;;-149.00;100.00;66333.84;5062693;28;47169;-77
2022/11/24 03:49:24;;;;;;;;;2.67;2.67;;;;;-149.00;100.00;66333.84;5080568;28;45475;-76
2022/11/24 03:51:50;;;;;;;;;5.00;4.33;;;;;-149.00;100.00;66333.84;5062264;28;45473;-76
2022/11/24 03:54:15;;;;;;;;;2.67;2.00;;;;;-149.00;100.00;66333.84;5080897;28;45241;-76
2022/11/24 03:56:41;;;;;;;;;3.33;2.00;;;;;-149.00;100.00;66333.84;5080588;28;45513;-77
2022/11/24 03:59:07;;;;;;;;;6.00;4.00;;;;;-149.00;100.00;66333.84;5080740;28;45973;-77
2022/11/24 04:01:33;;;;;;;;;5.67;3.67;;;;;-149.00;100.00;66333.84;5080301;28;45251;-76
2022/11/24 04:03:58;;;;;;;;;3.00;2.33;;;;;-149.00;100.00;66333.84;5080868;28;45223;-76
2022/11/24 04:06:24;;;;;;;;;2.33;2.33;;;;;-149.00;100.00;66333.84;5079903;28;51198;-77
2022/11/24 04:08:49;;;;;;;;;3.33;2.33;;;;;-149.00;100.00;66333.84;5080271;28;46445;-76
2022/11/24 04:12:42;;;;;;;;;4.67;3.00;;;;;-149.00;100.00;66333.84;5080251;28;52155;-76
2022/11/24 04:13:59;;;;;;;;;5.00;3.33;;;;;-149.00;100.00;66333.84;5080283;28;45273;-76
2022/11/24 04:16:25;;;;;;;;;2.33;2.33;;;;;-149.00;100.00;66333.84;5062145;28;45982;-76
2022/11/24 04:18:52;;;;;;;;;2.00;2.00;;;;;-149.00;100.00;66333.84;5079427;28;45361;-76
2022/11/24 04:21:17;;;;;;;;;3.00;2.00;;;;;-149.00;100.00;66333.84;5061922;28;45809;-76
2022/11/24 04:23:43;;;;;;;;;4.67;4.33;;;;;-149.00;100.00;66333.84;5080220;28;45343;-76
2022/11/24 04:26:08;;;;;;;;;2.00;2.00;;;;;-149.00;100.00;66333.84;5061781;28;46335;-76
2022/11/24 04:28:33;;;;;;;;;4.67;2.33;;;;;-149.00;100.00;66333.84;5061970;28;48275;-76
2022/11/24 04:31:03;;;;;;;;;3.00;2.00;;;;;-149.00;100.00;66333.84;5079906;28;45325;-76
2022/11/24 04:33:28;;;;;;;;;2.33;2.33;;;;;-149.00;100.00;66333.84;5080420;28;45235;-76
2022/11/24 04:35:54;;;;;;;;;4.00;2.33;;;;;-149.00;100.00;66333.84;5079748;28;45342;-76
2022/11/24 04:38:19;;;;;;;;;7.33;4.67;;;;;-149.00;100.00;66333.84;5079753;28;46205;-76
2022/11/24 04:40:44;;;;;;;;;3.00;2.00;;;;;-149.00;100.00;66333.84;5080079;28;45754;-77
2022/11/24 04:43:10;;;;;;;;;5.33;2.00;;;;;-149.00;100.00;66333.84;5061753;28;45348;-76
2022/11/24 04:45:36;;;;;;;;;3.67;1.00;;;;;-149.00;100.00;66333.84;5080061;28;45671;-76
2022/11/24 04:48:01;;;;;;;;;4.33;3.00;;;;;-149.00;100.00;66333.84;5079563;28;45457;-76
2022/11/24 04:50:26;;;;;;;;;3.00;3.00;;;;;-149.00;100.00;66333.84;5061539;28;45820;-76
2022/11/24 04:52:52;;;;;;;;;2.00;2.00;;;;;-149.00;100.00;66333.84;5079717;28;45322;-76
2022/11/24 04:55:17;;;;;;;;;4.00;4.00;;;;;-149.00;100.00;66333.84;5079639;28;45493;-76
2022/11/24 04:57:42;;;;;;;;;3.00;3.00;;;;;-149.00;100.00;66333.84;5079736;28;45330;-77
2022/11/24 05:00:09;;;;;;;;;5.00;2.67;;;;;-149.00;100.00;66333.84;5079243;28;51601;-76
2022/11/24 05:02:35;;;;;;;;;4.00;4.00;;;;;-149.00;100.00;66333.84;5080024;28;45497;-76
2022/11/24 05:05:00;;;;;;;;;2.00;2.00;;;;;-149.00;100.00;66333.84;5079320;28;45341;-76
2022/11/24 05:07:25;;;;;;;;;2.67;2.00;;;;;-149.00;100.00;66333.84;5079478;28;45537;-76
2022/11/24 05:12:35;;;;;;;;;4.00;2.33;;;;;-149.00;100.00;66333.84;5079790;28;45403;-77
2022/11/24 05:15:02;;;;;;;;;5.00;2.00;;;;;-149.00;100.00;66333.84;5079379;28;45437;-76
2022/11/24 05:17:29;;;;;;;;;3.67;3.00;;;;;-149.00;100.00;66333.84;5061082;28;47024;-76
2022/11/24 05:19:55;;;;;;;;;3.00;2.00;;;;;-149.00;100.00;66333.84;5079151;28;45292;-76
2022/11/24 05:22:20;;;;;;;;;5.33;3.00;;;;;-149.00;100.00;66333.84;5079340;28;45296;-76
2022/11/24 05:24:45;;;;;;;;;8.00;4.00;;;;;-149.00;100.00;66333.84;5079377;28;45587;-76
2022/11/24 05:27:11;;;;;;;;;6.00;5.00;;;;;-149.00;100.00;66333.84;5060739;28;52216;-76
2022/11/24 05:29:36;;;;;;;;;5.00;4.33;;;;;-149.00;100.00;66333.84;5081691;28;45505;-76
2022/11/24 05:32:02;;;;;;;;;3.00;3.00;;;;;-149.00;100.00;66333.84;5083076;28;45865;-76
2022/11/24 05:34:27;;;;;;;;;4.50;4.00;;;;;-149.00;100.00;66333.84;5082767;28;45584;-76
2022/11/24 05:37:01;;;;;;;;;7.67;4.00;;;;;-149.00;100.00;66333.84;5082828;28;45368;-76
2022/11/24 05:39:27;;;;;;;;;7.33;4.00;;;;;-149.00;100.00;66333.84;5082885;28;45313;-76
2022/11/24 05:41:55;;;;;;;;;4.33;4.33;;;;;-149.00;100.00;66333.84;5083031;28;45387;-77
2022/11/24 05:44:20;;;;;;;;;5.00;4.00;;;;;-149.00;100.00;66333.84;5064598;28;47239;-76
2022/11/24 05:46:45;;;;;;;;;4.33;4.00;;;;;-149.00;100.00;66333.84;5063955;28;50655;-76
2022/11/24 05:49:10;;;;;;;;;7.33;6.00;;;;;-149.00;100.00;66333.84;5082473;28;51170;-76
2022/11/24 05:51:36;;;;;;;;;6.33;5.00;;;;;-149.00;100.00;66333.84;5064482;28;45471;-76
2022/11/24 05:54:01;;;;;;;;;6.00;5.00;;;;;-149.00;100.00;66333.84;5082657;28;45191;-76
2022/11/24 05:56:26;;;;;;;;;6.00;4.67;;;;;-149.00;100.00;66333.84;5082456;28;46072;-76
2022/11/24 05:58:52;;;;;;;;;5.00;5.00;;;;;-149.00;100.00;66333.84;5082730;28;45297;-77
2022/11/24 06:01:17;;;;;;;;;5.00;3.67;;;;;-149.00;100.00;66333.84;5064481;28;45267;-76
2022/11/24 06:03:42;;;;;;;;;3.00;3.00;;;;;-149.00;100.00;66333.84;5064086;28;46123;-76
2022/11/24 06:06:08;;;;;;;;;5.33;4.67;;;;;-149.00;100.00;66333.84;5082041;28;49337;-76
2022/11/24 06:08:33;;;;;;;;;4.00;4.00;;;;;-149.00;100.00;66333.84;5082223;28;45297;-76
2022/11/24 06:11:16;;;;;;;;;3.00;3.00;;;;;-149.00;100.00;66333.84;5082690;28;45364;-76
2022/11/24 06:13:45;;;;;;;;;2.67;2.67;;;;;-149.00;100.00;66333.84;5082145;28;45235;-77
2022/11/24 06:16:11;;;;;;;;;3.00;2.00;;;;;-149.00;100.00;66333.84;5082272;28;46127;-76
2022/11/24 06:18:37;;;;;;;;;2.00;2.00;;;;;-149.00;100.00;66333.84;5063908;28;45428;-76
2022/11/24 06:21:03;;;;;;;;;5.00;3.33;;;;;-149.00;100.00;66333.84;5064024;28;45403;-76
2022/11/24 06:23:28;;;;;;;;;2.00;2.00;;;;;-149.00;100.00;66333.84;5082033;28;45328;-76
2022/11/24 06:25:57;;;;;;;;;4.00;4.00;;;;;-149.00;100.00;66333.84;5081773;28;46402;-76
2022/11/24 06:28:26;;;;;;;;;2.00;2.00;;;;;-149.00;100.00;66333.84;5063866;28;45571;-76
2022/11/24 06:30:52;;;;;;;;;5.00;2.00;;;;;-149.00;100.00;66333.84;5081751;28;45375;-76
2022/11/24 06:33:18;;;;;;;;;3.00;3.00;;;;;-149.00;100.00;66333.84;5063716;28;45957;-76
2022/11/24 06:35:43;;;;;;;;;3.67;3.67;;;;;-149.00;100.00;66333.84;5063143;28;47446;-76
2022/11/24 06:38:09;;;;;;;;;3.00;2.00;;;;;-149.00;100.00;66333.84;5063053;28;49113;-76
2022/11/24 06:40:34;;;;;;;;;3.00;3.00;;;;;-149.00;100.00;66333.84;5081425;28;45236;-76
2022/11/24 06:43:00;;;;;;;;;2.00;2.00;;;;;-149.00;100.00;66333.84;5063435;28;47632;-76
2022/11/24 06:45:25;;;;;;;;;5.33;3.00;;;;;-149.00;100.00;66333.84;5081601;28;45932;-77
2022/11/24 06:47:54;;;;;;;;;3.67;3.00;;;;;-149.00;100.00;66333.84;5081825;28;45288;-76
2022/11/24 06:50:20;;;;;;;;;4.33;4.00;;;;;-149.00;100.00;66333.84;5063567;28;45418;-76
2022/11/24 06:52:45;;;;;;;;;2.00;2.00;;;;;-149.00;100.00;66333.84;5081366;28;45328;-76
2022/11/24 06:55:10;;;;;;;;;2.67;2.00;;;;;-149.00;100.00;66333.84;5081457;28;46121;-76
2022/11/24 06:57:36;;;;;;;;;3.00;3.00;;;;;-149.00;100.00;66333.84;5081820;28;45382;-76
2022/11/24 07:00:03;;;;;;;;;4.00;3.00;;;;;-149.00;100.00;66333.84;5081709;28;45668;-77
2022/11/24 07:02:28;;;;;;;;;5.00;4.67;;;;;-149.00;100.00;66333.84;5081256;28;45426;-76
2022/11/24 07:04:54;;;;;;;;;5.33;5.33;;;;;-149.00;100.00;66333.84;5080966;28;45374;-76
2022/11/24 07:07:19;;;;;;;;;3.67;3.67;;;;;-149.00;100.00;66333.84;5062940;28;48716;-77
2022/11/24 07:09:44;;;;;;;;;4.33;3.67;;;;;-149.00;100.00;66333.84;5063466;28;45470;-77
2022/11/24 07:12:09;;;;;;;;;3.33;1.67;;;;;-149.00;100.00;66333.84;5081246;28;45460;-78
2022/11/24 07:14:35;;;;;;;;;2.33;2.00;;;;;-149.00;100.00;66333.84;5070654;27;48837;-78
2022/11/24 07:17:01;;;;;;;;;1.00;1.00;;;;;-149.00;100.00;66333.84;5078613;28;45376;-77
2022/11/24 07:19:26;;;;;;;;;4.00;4.00;;;;;-149.00;100.00;66333.84;5081429;28;45411;-78
2022/11/24 07:21:52;;;;;;;;;4.00;2.00;;;;;-149.00;100.00;66333.84;5081087;28;45237;-79
2022/11/24 07:24:17;;;;;;;;;3.33;3.33;;;;;-149.00;100.00;66333.84;5079764;28;46209;-78
2022/11/24 07:26:43;;;;;;;;;4.00;2.67;;;;;-149.00;100.00;66333.84;5089065;27;45213;-78
2022/11/24 07:29:08;;;;;;;;;4.00;3.00;;;;;-149.00;100.00;66333.84;5083242;27;45218;-78
2022/11/24 07:31:33;;;;;;;;;6.00;5.00;;;;;-149.00;100.00;66333.84;5062884;28;47155;-78
2022/11/24 07:33:59;;;;;;;;;5.67;3.00;;;;;-149.00;100.00;66333.84;5080647;28;45904;-76
2022/11/24 07:36:24;;;;;;;;;3.00;3.00;;;;;-149.00;100.00;66333.84;5081107;28;45231;-79
2022/11/24 07:38:50;;;;;;;;;3.33;3.00;;;;;-149.00;100.00;66333.84;5062657;28;45552;-76
2022/11/24 07:41:18;;;;;;;;;3.00;3.00;;;;;-149.00;100.00;66333.84;5062841;28;46399;-76
2022/11/24 07:43:44;;;;;;;;;3.67;3.00;;;;;-149.00;100.00;66333.84;5080709;28;47101;-76
2022/11/24 07:46:11;;;;;;;;;5.00;5.00;;;;;-149.00;100.00;66333.84;5080432;28;45271;-76
2022/11/24 07:48:37;;;;;;;;;6.00;5.67;;;;;-149.00;100.00;66333.84;5081176;28;45425;-76
2022/11/24 07:51:04;;;;;;;;;9.67;8.00;;;;;-149.00;100.00;66333.84;5080520;28;45284;-76
2022/11/24 07:53:30;;;;;;;;;6.67;6.67;;;;;-149.00;100.00;66333.84;5079226;28;46449;-76
2022/11/24 07:55:59;;;;;;;;;6.00;6.00;;;;;-149.00;100.00;66333.84;5062257;28;45276;-76
2022/11/24 07:58:29;;;;;;;;;5.00;5.00;;;;;-149.00;100.00;66333.84;5080653;28;45501;-76
2022/11/24 08:00:55;;;;;;;;;7.33;6.33;;;;;-149.00;100.00;66333.84;5078660;28;45471;-76
2022/11/24 08:03:21;;;;;;;;;8.67;7.00;;;;;-149.00;100.00;66333.84;5064263;27;46281;-76
2022/11/24 08:05:57;;;;;;;;;7.33;6.00;;;;;-149.00;100.00;66333.84;5088620;27;45478;-76
2022/11/24 08:08:23;;;;;;;;;9.33;7.00;;;;;-149.00;100.00;66333.84;5065376;28;45381;-76
2022/11/24 08:10:49;;;;;;;;;6.33;6.00;;;;;-149.00;100.00;66333.84;5060224;28;45350;-76
2022/11/24 08:13:14;;;;;;;;;7.00;7.00;;;;;-149.00;100.00;66333.84;5060671;28;47995;-77
2022/11/24 08:15:42;;;;;;;;;5.67;5.67;;;;;-149.00;100.00;66333.84;5079801;28;45374;-76
2022/11/24 08:18:08;;;;;;;;;7.67;7.67;;;;;-149.00;100.00;66333.84;5078570;28;45440;-76
2022/11/24 08:20:33;;;;;;;;;7.67;6.00;;;;;-149.00;100.00;66333.84;5060827;28;46173;-76
2022/11/24 08:22:59;;;;;;;;;6.33;6.00;;;;;-149.00;100.00;66333.84;5072960;27;45454;-76
2022/11/24 08:25:32;;;;;;;;;7.00;5.67;;;;;-149.00;100.00;66333.84;5061906;28;45308;-76
2022/11/24 08:28:02;;;;;;;;;9.33;7.00;;;;;-149.00;100.00;66333.84;5061797;28;45282;-77
2022/11/24 08:30:31;;;;;;;;;10.67;8.67;;;;;-149.00;100.00;66333.84;5079047;28;45332;-77
2022/11/24 08:32:59;;;;;;;;;11.67;11.33;;;;;-149.00;100.00;66333.84;5061699;28;47363;-77
2022/11/24 08:35:27;;;;;;;;;8.33;8.33;;;;;-149.00;100.00;66333.84;5073560;28;45359;-77
2022/11/24 08:37:53;;;;;;;;;8.00;6.67;;;;;-149.00;100.00;66333.84;5061675;28;45383;-76
2022/11/24 08:40:19;;;;;;;;;14.00;10.67;;;;;-149.00;100.00;66333.84;5061661;28;45498;-76
2022/11/24 08:42:44;;;;;;;;;8.67;8.00;;;;;-149.00;100.00;66333.84;5079105;28;45958;-76
2022/11/24 08:45:10;;;;;;;;;10.33;7.33;;;;;-149.00;100.00;66333.84;5061867;28;45320;-77
2022/11/24 08:47:35;;;;;;;;;10.33;8.67;;;;;-149.00;100.00;66333.84;5079904;28;45440;-76
2022/11/24 08:50:01;;;;;;;;;9.33;9.33;;;;;-149.00;100.00;66333.84;5061096;28;47218;-76
2022/11/24 08:52:27;;;;;;;;;8.67;8.67;;;;;-149.00;100.00;66333.84;5061364;28;45540;-77
2022/11/24 08:54:53;;;;;;;;;8.67;7.33;;;;;-149.00;100.00;66333.84;5070802;28;45394;-77
2022/11/24 08:57:18;;;;;;;;;8.00;8.00;;;;;-149.00;100.00;66333.84;5061659;28;45333;-76
2022/11/24 08:59:45;;;;;;;;;9.00;8.00;;;;;-149.00;100.00;66333.84;5079501;28;45403;-76
2022/11/24 09:02:11;;;;;;;;;9.33;7.67;;;;;-149.00;100.00;66333.84;5061152;28;47460;-76
2022/11/24 09:04:37;;;;;;;;;10.33;7.67;;;;;-149.00;100.00;66333.84;5060651;28;45392;-76
2022/11/24 09:07:02;;;;;;;;;10.00;8.00;;;;;-149.00;100.00;66333.84;5079376;27;45413;-76
2022/11/24 09:09:28;;;;;;;;;11.00;8.67;;;;;-149.00;100.00;66333.84;5070230;28;45454;-76
2022/11/24 09:11:53;;;;;;;;;5.67;5.00;;;;;-149.00;100.00;66333.84;5079469;28;46588;-76
2022/11/24 09:14:18;;;;;;;;;6.67;5.00;;;;;-149.00;100.00;66333.84;5065413;28;45365;-77
2022/11/24 09:16:43;;;;;;;;;7.33;6.00;;;;;-149.00;100.00;66333.84;5078460;28;45360;-78
2022/11/24 09:19:09;;;;;;;;;8.00;7.00;;;;;-149.00;100.00;66333.84;5078506;28;51971;-76
2022/11/24 09:21:37;;;;;;;;;10.00;9.67;;;;;-149.00;100.00;66333.84;5079266;28;46492;-77
2022/11/24 09:24:07;;;;;;;;;10.00;8.00;;;;;-149.00;100.00;66333.84;5061052;28;45267;-77
2022/11/24 09:26:35;;;;;;;;;8.00;7.00;;;;;-149.00;100.00;66333.84;5078081;28;45466;-77
2022/11/24 09:29:02;;;;;;;;;5.00;5.00;;;;;-149.00;100.00;66333.84;5079200;28;45322;-78
2022/11/24 09:31:32;;;;;;;;;6.67;6.00;;;;;-149.00;100.00;66333.84;5060979;28;46132;-77
2022/11/24 09:33:58;;;;;;;;;8.67;6.33;;;;;-149.00;100.00;66333.84;5059806;28;45416;-78
2022/11/24 09:36:24;;;;;;;;;9.33;7.00;;;;;-149.00;100.00;66333.84;5060552;28;45383;-82
2022/11/24 09:38:49;;;;;;;;;7.33;6.00;;;;;-149.00;100.00;66333.84;5078923;28;45645;-82
2022/11/24 09:41:33;;;;;;;;;8.67;7.67;;;;;-149.00;100.00;66333.84;5079407;28;49029;-79
2022/11/24 09:44:07;;;;;;;;;6.33;6.33;;;;;-149.00;100.00;66333.84;5081387;28;45395;-81
2022/11/24 09:46:39;;;;;;;;;7.67;7.67;;;;;-149.00;100.00;66333.84;5060035;28;45381;-77
2022/11/24 09:49:11;;;;;;;;;8.67;7.00;;;;;-149.00;100.00;66333.84;5078470;28;45479;-80
2022/11/24 09:51:39;;;;;;;;;7.33;7.33;;;;;-149.00;100.00;66333.84;5061213;28;48361;-79
2022/11/24 09:54:12;;;;;;;;;10.00;8.00;;;;;-149.00;100.00;66333.84;5075260;28;45314;-81
2022/11/24 09:56:40;;;;;;;;;6.00;6.00;;;;;-149.00;100.00;66333.84;5074940;28;45300;-77
2022/11/24 09:59:16;;;;;;;;;6.00;4.67;;;;;-149.00;100.00;66333.84;5059642;28;46655;-80
2022/11/24 10:01:44;;;;;;;;;6.00;5.67;;;;;-149.00;100.00;66333.84;5078978;27;46345;-79
2022/11/24 10:04:41;;;;;;;;;8.67;8.67;;;;;-149.00;100.00;66333.84;5068111;28;45991;-81
2022/11/24 10:07:12;;;;;;;;;6.33;5.67;;;;;-149.00;100.00;66333.84;5063449;28;45370;-80
2022/11/24 10:09:40;;;;;;;;;8.00;7.00;;;;;-149.00;100.00;66333.84;5075434;27;45486;-79
2022/11/24 10:12:14;;;;;;;;;8.33;6.33;;;;;-149.00;100.00;66333.84;5072986;28;45661;-79
2022/11/24 10:14:40;;;;;;;;;10.00;8.00;;;;;-149.00;100.00;66333.84;5077154;28;45324;-78
2022/11/24 10:17:47;;;;;;;;;4.67;4.67;;;;;-149.00;100.00;66333.84;5060362;28;45414;-80
2022/11/24 10:20:28;;;;;;;;;7.00;6.00;;;;;-149.00;100.00;66333.84;5078149;27;45360;-78
2022/11/24 10:23:27;;;;;;;;;5.00;5.00;;;;;-149.00;100.00;66333.84;5079047;28;47141;-79
2022/11/24 10:25:57;;;;;;;;;8.00;5.00;;;;;-149.00;100.00;66333.84;5085645;27;45204;-80
2022/11/24 10:28:28;;;;;;;;;6.00;5.00;;;;;-149.00;100.00;66333.84;5091255;27;45418;-82
2022/11/24 10:31:14;;;;;;;;;8.67;7.33;;;;;-149.00;100.00;66333.84;5083349;27;45312;-80
2022/11/24 10:33:41;;;;;;;;;21.67;15.67;;;;;-149.00;100.00;66333.84;5079748;27;45319;-79
2022/11/24 10:36:15;;;;;;;;;18.33;16.00;;;;;-149.00;100.00;66333.84;5081855;28;45394;-80
2022/11/24 10:39:16;;;;;;;;;15.00;14.33;;;;;-149.00;100.00;66333.84;5081862;28;45394;-79
2022/11/24 10:41:55;;;;;;;;;9.00;8.33;;;;;-149.00;100.00;66333.84;5030140;28;46116;-79
2022/11/24 10:44:20;;;;;;;;;8.00;8.00;;;;;-149.00;100.00;66333.84;5081609;28;45751;-79
2022/11/24 10:46:46;;;;;;;;;10.67;10.00;;;;;-149.00;100.00;66333.84;5081425;28;45346;-78
2022/11/24 10:49:21;;;;;;;;;12.67;12.00;;;;;-149.00;100.00;66333.84;5066416;28;45297;-78
2022/11/24 10:52:12;;;;;;;;;9.00;6.67;;;;;-149.00;100.00;66333.84;5061074;28;47884;-78
2022/11/24 10:54:59;;;;;;;;;9.00;8.00;;;;;-149.00;100.00;66333.84;5077180;28;45397;-79
2022/11/24 10:57:34;;;;;;;;;8.67;8.33;;;;;-149.00;100.00;66333.84;5081264;27;45396;-79
2022/11/24 11:00:02;;;;;;;;;8.00;6.33;;;;;-149.00;100.00;66333.84;5081733;28;45344;-79
2022/11/24 11:02:37;;;;;;;;;8.00;8.00;;;;;-149.00;100.00;66333.84;5081355;28;46161;-78
2022/11/24 11:05:33;;;;;;;;;13.00;13.00;;;;;-149.00;100.00;66333.84;5081126;28;45373;-78
2022/11/24 11:08:29;;;;;;;;;11.33;8.33;;;;;-149.00;100.00;66333.84;5063901;28;46283;-80
2022/11/24 11:11:16;;;;;;;;;8.33;8.33;;;;;-149.00;100.00;66333.84;5063327;28;45510;-79
2022/11/24 11:13:52;;;;;;;;;9.67;9.67;;;;;-149.00;100.00;66333.84;5081271;28;45466;-79
2022/11/24 11:16:25;;;;;;;;;9.67;8.67;;;;;-149.00;100.00;66333.84;5080960;28;45287;-80